Flight Briefing for CMB829

Departure Arrival
KeflavĂ­k International Airport (BIKF)
Click to view FAA NOTAMS
Ramstein Air Force Base (ETAR)
Click to view FAA NOTAMS
Departure Time Arrival Time
N/A N/A
Aircraft Distance
B757-200SF 1305nm
Departure METAR Arrival METAR
BIKF 271200Z 35009KT 320V030 CAVOK 11/M00 Q1014 ETAR 271206Z AUTO 27006KT 9999 -RA FEW013 FEW018 BKN031 BKN040 16/14 A2985 RMK AO2 RAE02RAB06 SLP111 $
Suggested Route
OSKUM2C OSKUM ROSTI G3 MY G11 PEMOS SUM L7 LONAM UL7 SPY UN852 LNO PFF


View recent IFR Routes data
Notes
USTRANSCOM CONTRACT FLIGHT

Charts and Procedures

Charts for BIKF
No chart available
Charts for ETAR
No chart available

Windy.com Weather Map